sensor_id;sensor_type;location;lat;lon;timestamp;P1;durP1;ratioP1;P2;durP2;ratioP2
68144;SDS011;55400;51.824;-0.196;2024-02-26T00:01:49;3.80;;;2.20;;
68144;SDS011;55400;51.824;-0.196;2024-02-26T00:05:49;3.10;;;2.10;;
68144;SDS011;55400;51.824;-0.196;2024-02-26T00:09:49;3.50;;;2.10;;
68144;SDS011;55400;51.824;-0.196;2024-02-26T00:13:49;4.50;;;2.20;;
68144;SDS011;55400;51.824;-0.196;2024-02-26T00:17:49;2.70;;;2.10;;
68144;SDS011;55400;51.824;-0.196;2024-02-26T00:21:49;2.70;;;2.10;;
68144;SDS011;55400;51.824;-0.196;2024-02-26T00:25:49;4.00;;;2.50;;
68144;SDS011;55400;51.824;-0.196;2024-02-26T00:29:49;5.70;;;2.40;;
68144;SDS011;55400;51.824;-0.196;2024-02-26T00:33:49;3.40;;;2.50;;
68144;SDS011;55400;51.824;-0.196;2024-02-26T00:37:49;3.40;;;2.40;;
68144;SDS011;55400;51.824;-0.196;2024-02-26T00:45:49;4.40;;;2.10;;
68144;SDS011;55400;51.824;-0.196;2024-02-26T00:49:49;4.10;;;2.10;;
68144;SDS011;55400;51.824;-0.196;2024-02-26T00:53:49;5.60;;;2.20;;
68144;SDS011;55400;51.824;-0.196;2024-02-26T00:57:49;4.20;;;2.30;;
68144;SDS011;55400;51.824;-0.196;2024-02-26T01:01:49;6.00;;;2.70;;
68144;SDS011;55400;51.824;-0.196;2024-02-26T01:05:49;4.20;;;2.30;;
68144;SDS011;55400;51.824;-0.196;2024-02-26T01:09:49;5.90;;;2.60;;
68144;SDS011;55400;51.824;-0.196;2024-02-26T01:13:49;3.20;;;2.30;;
68144;SDS011;55400;51.824;-0.196;2024-02-26T01:17:49;7.10;;;2.20;;
68144;SDS011;55400;51.824;-0.196;2024-02-26T01:21:49;8.20;;;2.30;;
68144;SDS011;55400;51.824;-0.196;2024-02-26T01:25:49;5.50;;;2.20;;
68144;SDS011;55400;51.824;-0.196;2024-02-26T01:29:49;2.90;;;1.90;;
68144;SDS011;55400;51.824;-0.196;2024-02-26T01:33:49;5.40;;;2.00;;
68144;SDS011;55400;51.824;-0.196;2024-02-26T01:37:49;3.40;;;1.90;;
68144;SDS011;55400;51.824;-0.196;2024-02-26T01:41:49;2.00;;;1.70;;
68144;SDS011;55400;51.824;-0.196;2024-02-26T01:45:49;4.80;;;2.10;;
68144;SDS011;55400;51.824;-0.196;2024-02-26T01:49:49;2.10;;;1.70;;
68144;SDS011;55400;51.824;-0.196;2024-02-26T01:53:49;4.00;;;1.60;;
68144;SDS011;55400;51.824;-0.196;2024-02-26T01:57:50;2.80;;;1.70;;
68144;SDS011;55400;51.824;-0.196;2024-02-26T02:01:54;3.00;;;1.80;;
68144;SDS011;55400;51.824;-0.196;2024-02-26T02:05:49;3.20;;;1.50;;
68144;SDS011;55400;51.824;-0.196;2024-02-26T02:09:50;3.20;;;1.70;;
68144;SDS011;55400;51.824;-0.196;2024-02-26T02:13:49;2.70;;;1.60;;
68144;SDS011;55400;51.824;-0.196;2024-02-26T02:17:49;4.80;;;1.80;;
68144;SDS011;55400;51.824;-0.196;2024-02-26T02:25:50;4.20;;;1.70;;
68144;SDS011;55400;51.824;-0.196;2024-02-26T02:29:49;5.40;;;1.90;;
68144;SDS011;55400;51.824;-0.196;2024-02-26T02:33:50;2.80;;;1.40;;
68144;SDS011;55400;51.824;-0.196;2024-02-26T02:37:49;7.30;;;1.80;;
68144;SDS011;55400;51.824;-0.196;2024-02-26T02:41:49;6.50;;;1.70;;
68144;SDS011;55400;51.824;-0.196;2024-02-26T02:45:49;5.10;;;1.70;;
68144;SDS011;55400;51.824;-0.196;2024-02-26T02:49:49;4.20;;;1.70;;
68144;SDS011;55400;51.824;-0.196;2024-02-26T02:53:49;2.60;;;1.60;;
68144;SDS011;55400;51.824;-0.196;2024-02-26T02:57:49;4.20;;;1.60;;
68144;SDS011;55400;51.824;-0.196;2024-02-26T03:01:49;5.20;;;1.60;;
68144;SDS011;55400;51.824;-0.196;2024-02-26T03:05:49;1.50;;;1.40;;
68144;SDS011;55400;51.824;-0.196;2024-02-26T03:09:49;4.50;;;1.80;;
68144;SDS011;55400;51.824;-0.196;2024-02-26T03:13:49;2.90;;;1.70;;
68144;SDS011;55400;51.824;-0.196;2024-02-26T03:17:49;3.70;;;1.90;;
68144;SDS011;55400;51.824;-0.196;2024-02-26T03:21:49;3.60;;;1.50;;
68144;SDS011;55400;51.824;-0.196;2024-02-26T03:25:49;6.00;;;1.60;;
68144;SDS011;55400;51.824;-0.196;2024-02-26T03:29:49;3.20;;;1.60;;
68144;SDS011;55400;51.824;-0.196;2024-02-26T03:33:49;4.70;;;2.10;;
68144;SDS011;55400;51.824;-0.196;2024-02-26T03:37:49;3.10;;;1.60;;
68144;SDS011;55400;51.824;-0.196;2024-02-26T03:41:49;3.60;;;1.70;;
68144;SDS011;55400;51.824;-0.196;2024-02-26T03:45:50;3.20;;;1.60;;
68144;SDS011;55400;51.824;-0.196;2024-02-26T03:49:49;3.20;;;1.40;;
68144;SDS011;55400;51.824;-0.196;2024-02-26T03:53:50;1.40;;;1.10;;
68144;SDS011;55400;51.824;-0.196;2024-02-26T03:57:50;2.80;;;1.50;;
68144;SDS011;55400;51.824;-0.196;2024-02-26T04:01:50;1.40;;;1.30;;
68144;SDS011;55400;51.824;-0.196;2024-02-26T04:05:49;3.80;;;1.40;;
68144;SDS011;55400;51.824;-0.196;2024-02-26T04:09:50;2.30;;;1.30;;
68144;SDS011;55400;51.824;-0.196;2024-02-26T04:13:49;2.40;;;1.30;;
68144;SDS011;55400;51.824;-0.196;2024-02-26T04:17:50;3.90;;;1.30;;
68144;SDS011;55400;51.824;-0.196;2024-02-26T04:21:49;4.50;;;1.20;;
68144;SDS011;55400;51.824;-0.196;2024-02-26T04:25:50;2.50;;;1.40;;
68144;SDS011;55400;51.824;-0.196;2024-02-26T04:29:50;4.20;;;1.20;;
68144;SDS011;55400;51.824;-0.196;2024-02-26T04:33:50;3.50;;;1.50;;
68144;SDS011;55400;51.824;-0.196;2024-02-26T04:37:50;3.90;;;1.40;;
68144;SDS011;55400;51.824;-0.196;2024-02-26T04:41:50;5.30;;;1.60;;
68144;SDS011;55400;51.824;-0.196;2024-02-26T04:45:50;2.10;;;1.30;;
68144;SDS011;55400;51.824;-0.196;2024-02-26T04:49:50;2.70;;;1.10;;
68144;SDS011;55400;51.824;-0.196;2024-02-26T04:53:50;2.70;;;1.20;;
68144;SDS011;55400;51.824;-0.196;2024-02-26T04:57:50;2.80;;;1.50;;
68144;SDS011;55400;51.824;-0.196;2024-02-26T05:01:50;3.60;;;1.20;;
68144;SDS011;55400;51.824;-0.196;2024-02-26T05:05:50;3.10;;;1.00;;
68144;SDS011;55400;51.824;-0.196;2024-02-26T05:09:50;2.80;;;1.00;;
68144;SDS011;55400;51.824;-0.196;2024-02-26T05:13:50;2.10;;;1.00;;
68144;SDS011;55400;51.824;-0.196;2024-02-26T05:17:50;3.00;;;1.10;;
68144;SDS011;55400;51.824;-0.196;2024-02-26T05:21:50;3.20;;;1.10;;
68144;SDS011;55400;51.824;-0.196;2024-02-26T05:25:50;2.40;;;0.90;;
68144;SDS011;55400;51.824;-0.196;2024-02-26T05:29:50;2.20;;;1.10;;
68144;SDS011;55400;51.824;-0.196;2024-02-26T05:33:50;2.70;;;1.00;;
68144;SDS011;55400;51.824;-0.196;2024-02-26T05:37:50;3.40;;;0.90;;
68144;SDS011;55400;51.824;-0.196;2024-02-26T05:41:50;2.30;;;0.90;;
68144;SDS011;55400;51.824;-0.196;2024-02-26T05:45:50;4.50;;;0.90;;
68144;SDS011;55400;51.824;-0.196;2024-02-26T05:49:50;1.10;;;0.80;;
68144;SDS011;55400;51.824;-0.196;2024-02-26T05:53:50;0.90;;;0.60;;
68144;SDS011;55400;51.824;-0.196;2024-02-26T05:57:50;5.00;;;1.10;;
68144;SDS011;55400;51.824;-0.196;2024-02-26T06:01:50;4.60;;;1.20;;
68144;SDS011;55400;51.824;-0.196;2024-02-26T06:05:50;5.10;;;0.90;;
68144;SDS011;55400;51.824;-0.196;2024-02-26T06:09:50;2.00;;;0.80;;
68144;SDS011;55400;51.824;-0.196;2024-02-26T06:17:50;4.90;;;0.90;;
68144;SDS011;55400;51.824;-0.196;2024-02-26T06:21:50;3.50;;;1.10;;
68144;SDS011;55400;51.824;-0.196;2024-02-26T06:25:50;2.70;;;1.00;;
68144;SDS011;55400;51.824;-0.196;2024-02-26T06:29:50;3.80;;;1.30;;
68144;SDS011;55400;51.824;-0.196;2024-02-26T06:33:50;3.10;;;1.10;;
68144;SDS011;55400;51.824;-0.196;2024-02-26T06:37:50;1.70;;;1.00;;
68144;SDS011;55400;51.824;-0.196;2024-02-26T06:41:50;3.60;;;1.20;;
68144;SDS011;55400;51.824;-0.196;2024-02-26T06:45:50;4.80;;;1.40;;
68144;SDS011;55400;51.824;-0.196;2024-02-26T06:49:50;3.20;;;0.90;;
68144;SDS011;55400;51.824;-0.196;2024-02-26T06:53:50;1.70;;;1.10;;
68144;SDS011;55400;51.824;-0.196;2024-02-26T06:57:50;3.90;;;1.10;;
68144;SDS011;55400;51.824;-0.196;2024-02-26T07:01:50;5.40;;;1.20;;
68144;SDS011;55400;51.824;-0.196;2024-02-26T07:09:50;4.20;;;1.20;;
68144;SDS011;55400;51.824;-0.196;2024-02-26T07:17:50;3.20;;;1.00;;
68144;SDS011;55400;51.824;-0.196;2024-02-26T07:21:50;4.10;;;1.00;;
68144;SDS011;55400;51.824;-0.196;2024-02-26T07:25:50;3.80;;;1.30;;
68144;SDS011;55400;51.824;-0.196;2024-02-26T07:29:50;3.30;;;1.10;;
68144;SDS011;55400;51.824;-0.196;2024-02-26T07:41:50;2.20;;;1.00;;
68144;SDS011;55400;51.824;-0.196;2024-02-26T07:45:50;3.00;;;1.00;;
68144;SDS011;55400;51.824;-0.196;2024-02-26T07:49:50;1.30;;;1.10;;
68144;SDS011;55400;51.824;-0.196;2024-02-26T07:53:50;2.90;;;0.90;;
68144;SDS011;55400;51.824;-0.196;2024-02-26T07:57:50;2.20;;;1.00;;
68144;SDS011;55400;51.824;-0.196;2024-02-26T08:01:50;4.40;;;1.10;;
68144;SDS011;55400;51.824;-0.196;2024-02-26T08:05:51;3.70;;;0.90;;
68144;SDS011;55400;51.824;-0.196;2024-02-26T08:09:50;4.30;;;1.10;;
68144;SDS011;55400;51.824;-0.196;2024-02-26T08:13:50;3.00;;;1.10;;
68144;SDS011;55400;51.824;-0.196;2024-02-26T08:17:50;4.60;;;1.00;;
68144;SDS011;55400;51.824;-0.196;2024-02-26T08:21:50;4.10;;;1.10;;
68144;SDS011;55400;51.824;-0.196;2024-02-26T08:25:50;3.80;;;0.90;;
68144;SDS011;55400;51.824;-0.196;2024-02-26T08:29:50;1.40;;;0.90;;
68144;SDS011;55400;51.824;-0.196;2024-02-26T08:37:50;2.50;;;1.30;;
68144;SDS011;55400;51.824;-0.196;2024-02-26T08:41:50;1.90;;;0.80;;
68144;SDS011;55400;51.824;-0.196;2024-02-26T08:45:50;2.00;;;0.80;;
68144;SDS011;55400;51.824;-0.196;2024-02-26T08:49:50;3.50;;;0.90;;
68144;SDS011;55400;51.824;-0.196;2024-02-26T08:53:50;3.30;;;0.90;;
68144;SDS011;55400;51.824;-0.196;2024-02-26T08:57:51;1.60;;;1.10;;
68144;SDS011;55400;51.824;-0.196;2024-02-26T09:01:50;3.00;;;0.90;;
68144;SDS011;55400;51.824;-0.196;2024-02-26T09:05:50;2.70;;;0.90;;
68144;SDS011;55400;51.824;-0.196;2024-02-26T09:09:50;3.90;;;0.90;;
68144;SDS011;55400;51.824;-0.196;2024-02-26T09:13:50;2.70;;;0.80;;
68144;SDS011;55400;51.824;-0.196;2024-02-26T09:17:50;2.00;;;0.80;;
68144;SDS011;55400;51.824;-0.196;2024-02-26T09:21:50;2.50;;;0.80;;
68144;SDS011;55400;51.824;-0.196;2024-02-26T09:29:50;2.60;;;0.90;;
68144;SDS011;55400;51.824;-0.196;2024-02-26T09:33:50;1.90;;;0.70;;
68144;SDS011;55400;51.824;-0.196;2024-02-26T09:37:50;2.80;;;1.00;;
68144;SDS011;55400;51.824;-0.196;2024-02-26T09:41:50;4.60;;;0.80;;
68144;SDS011;55400;51.824;-0.196;2024-02-26T09:45:52;2.90;;;0.90;;
68144;SDS011;55400;51.824;-0.196;2024-02-26T09:49:52;1.60;;;0.60;;
68144;SDS011;55400;51.824;-0.196;2024-02-26T09:53:51;1.80;;;0.80;;
68144;SDS011;55400;51.824;-0.196;2024-02-26T09:57:51;1.40;;;0.90;;
68144;SDS011;55400;51.824;-0.196;2024-02-26T10:01:51;2.00;;;0.70;;
68144;SDS011;55400;51.824;-0.196;2024-02-26T10:05:50;2.40;;;0.70;;
68144;SDS011;55400;51.824;-0.196;2024-02-26T10:09:51;2.60;;;0.80;;
68144;SDS011;55400;51.824;-0.196;2024-02-26T10:13:50;2.00;;;0.80;;
68144;SDS011;55400;51.824;-0.196;2024-02-26T10:17:51;1.10;;;0.80;;
68144;SDS011;55400;51.824;-0.196;2024-02-26T10:21:52;1.90;;;0.80;;
68144;SDS011;55400;51.824;-0.196;2024-02-26T10:25:52;2.50;;;0.80;;
68144;SDS011;55400;51.824;-0.196;2024-02-26T10:29:51;4.20;;;0.90;;
68144;SDS011;55400;51.824;-0.196;2024-02-26T10:33:55;3.30;;;0.90;;
68144;SDS011;55400;51.824;-0.196;2024-02-26T10:37:51;2.30;;;1.10;;
68144;SDS011;55400;51.824;-0.196;2024-02-26T10:41:51;3.20;;;0.80;;
68144;SDS011;55400;51.824;-0.196;2024-02-26T10:45:51;3.10;;;1.10;;
68144;SDS011;55400;51.824;-0.196;2024-02-26T10:49:51;3.20;;;1.10;;
68144;SDS011;55400;51.824;-0.196;2024-02-26T10:53:54;2.80;;;1.00;;
68144;SDS011;55400;51.824;-0.196;2024-02-26T10:57:52;3.20;;;1.00;;
68144;SDS011;55400;51.824;-0.196;2024-02-26T11:01:51;3.80;;;0.90;;
68144;SDS011;55400;51.824;-0.196;2024-02-26T11:05:51;2.30;;;0.60;;
68144;SDS011;55400;51.824;-0.196;2024-02-26T11:09:51;3.80;;;1.00;;
68144;SDS011;55400;51.824;-0.196;2024-02-26T11:13:53;2.40;;;0.90;;
68144;SDS011;55400;51.824;-0.196;2024-02-26T11:17:52;8.00;;;1.00;;
68144;SDS011;55400;51.824;-0.196;2024-02-26T11:21:51;1.90;;;0.80;;
68144;SDS011;55400;51.824;-0.196;2024-02-26T11:25:52;1.80;;;0.80;;
68144;SDS011;55400;51.824;-0.196;2024-02-26T11:29:53;3.20;;;1.00;;
68144;SDS011;55400;51.824;-0.196;2024-02-26T11:33:51;1.90;;;0.80;;
68144;SDS011;55400;51.824;-0.196;2024-02-26T11:37:52;2.60;;;1.00;;
68144;SDS011;55400;51.824;-0.196;2024-02-26T11:41:51;4.10;;;1.00;;
68144;SDS011;55400;51.824;-0.196;2024-02-26T11:45:51;1.30;;;0.60;;
68144;SDS011;55400;51.824;-0.196;2024-02-26T11:49:51;3.80;;;1.00;;
68144;SDS011;55400;51.824;-0.196;2024-02-26T11:53:51;2.60;;;0.80;;
68144;SDS011;55400;51.824;-0.196;2024-02-26T11:57:51;1.60;;;0.80;;
68144;SDS011;55400;51.824;-0.196;2024-02-26T12:01:51;1.70;;;0.90;;
68144;SDS011;55400;51.824;-0.196;2024-02-26T12:05:51;4.80;;;1.00;;
68144;SDS011;55400;51.824;-0.196;2024-02-26T12:13:51;5.00;;;1.00;;
68144;SDS011;55400;51.824;-0.196;2024-02-26T12:17:51;4.00;;;1.00;;
68144;SDS011;55400;51.824;-0.196;2024-02-26T12:21:52;4.20;;;1.00;;
68144;SDS011;55400;51.824;-0.196;2024-02-26T12:25:51;4.10;;;0.80;;
68144;SDS011;55400;51.824;-0.196;2024-02-26T12:33:51;1.10;;;0.80;;
68144;SDS011;55400;51.824;-0.196;2024-02-26T12:37:52;6.10;;;0.80;;
68144;SDS011;55400;51.824;-0.196;2024-02-26T12:41:51;4.10;;;1.10;;
68144;SDS011;55400;51.824;-0.196;2024-02-26T12:45:51;2.20;;;1.00;;
68144;SDS011;55400;51.824;-0.196;2024-02-26T12:49:51;3.00;;;0.80;;
68144;SDS011;55400;51.824;-0.196;2024-02-26T12:53:52;2.20;;;0.60;;
68144;SDS011;55400;51.824;-0.196;2024-02-26T12:57:52;1.60;;;0.60;;
68144;SDS011;55400;51.824;-0.196;2024-02-26T13:01:51;2.00;;;0.60;;
68144;SDS011;55400;51.824;-0.196;2024-02-26T13:05:52;2.60;;;0.40;;
68144;SDS011;55400;51.824;-0.196;2024-02-26T13:09:51;1.50;;;0.80;;
68144;SDS011;55400;51.824;-0.196;2024-02-26T13:13:51;3.20;;;0.60;;
68144;SDS011;55400;51.824;-0.196;2024-02-26T13:17:51;2.10;;;0.80;;
68144;SDS011;55400;51.824;-0.196;2024-02-26T13:21:51;2.60;;;0.80;;
68144;SDS011;55400;51.824;-0.196;2024-02-26T13:30:01;1.20;;;0.60;;
68144;SDS011;55400;51.824;-0.196;2024-02-26T13:33:51;2.40;;;0.90;;
68144;SDS011;55400;51.824;-0.196;2024-02-26T13:37:51;2.80;;;0.90;;
68144;SDS011;55400;51.824;-0.196;2024-02-26T13:41:52;3.30;;;0.80;;
68144;SDS011;55400;51.824;-0.196;2024-02-26T13:45:51;3.20;;;0.90;;
68144;SDS011;55400;51.824;-0.196;2024-02-26T13:49:51;2.40;;;0.90;;
68144;SDS011;55400;51.824;-0.196;2024-02-26T13:53:51;3.00;;;1.10;;
68144;SDS011;55400;51.824;-0.196;2024-02-26T13:57:51;4.60;;;0.70;;
68144;SDS011;55400;51.824;-0.196;2024-02-26T14:01:51;2.90;;;1.10;;
68144;SDS011;55400;51.824;-0.196;2024-02-26T14:05:51;3.30;;;0.90;;
68144;SDS011;55400;51.824;-0.196;2024-02-26T14:09:51;1.90;;;0.80;;
68144;SDS011;55400;51.824;-0.196;2024-02-26T14:13:51;3.30;;;1.00;;
68144;SDS011;55400;51.824;-0.196;2024-02-26T14:17:51;1.60;;;0.90;;
68144;SDS011;55400;51.824;-0.196;2024-02-26T14:21:51;3.60;;;0.90;;
68144;SDS011;55400;51.824;-0.196;2024-02-26T14:25:51;2.80;;;0.90;;
68144;SDS011;55400;51.824;-0.196;2024-02-26T14:33:51;3.90;;;0.90;;
68144;SDS011;55400;51.824;-0.196;2024-02-26T14:37:51;1.90;;;0.80;;
68144;SDS011;55400;51.824;-0.196;2024-02-26T14:41:51;1.90;;;0.80;;
68144;SDS011;55400;51.824;-0.196;2024-02-26T14:45:51;2.70;;;0.80;;
68144;SDS011;55400;51.824;-0.196;2024-02-26T14:49:51;2.10;;;0.90;;
68144;SDS011;55400;51.824;-0.196;2024-02-26T14:53:51;5.40;;;1.00;;
68144;SDS011;55400;51.824;-0.196;2024-02-26T14:57:51;2.50;;;0.70;;
68144;SDS011;55400;51.824;-0.196;2024-02-26T15:01:51;4.00;;;0.80;;
68144;SDS011;55400;51.824;-0.196;2024-02-26T15:05:51;2.20;;;0.90;;
68144;SDS011;55400;51.824;-0.196;2024-02-26T15:09:51;4.20;;;0.80;;
68144;SDS011;55400;51.824;-0.196;2024-02-26T15:13:51;1.80;;;0.80;;
68144;SDS011;55400;51.824;-0.196;2024-02-26T15:17:51;3.80;;;0.80;;
68144;SDS011;55400;51.824;-0.196;2024-02-26T15:21:52;3.90;;;0.90;;
68144;SDS011;55400;51.824;-0.196;2024-02-26T15:25:51;2.80;;;1.00;;
68144;SDS011;55400;51.824;-0.196;2024-02-26T15:29:51;3.90;;;0.80;;
68144;SDS011;55400;51.824;-0.196;2024-02-26T15:33:51;3.90;;;0.70;;
68144;SDS011;55400;51.824;-0.196;2024-02-26T15:37:51;2.20;;;1.00;;
68144;SDS011;55400;51.824;-0.196;2024-02-26T15:41:51;1.70;;;0.80;;
68144;SDS011;55400;51.824;-0.196;2024-02-26T15:45:52;1.90;;;0.90;;
68144;SDS011;55400;51.824;-0.196;2024-02-26T15:49:51;1.00;;;0.70;;
68144;SDS011;55400;51.824;-0.196;2024-02-26T15:53:52;2.20;;;0.90;;
68144;SDS011;55400;51.824;-0.196;2024-02-26T15:57:51;3.00;;;0.90;;
68144;SDS011;55400;51.824;-0.196;2024-02-26T16:01:52;3.10;;;1.10;;
68144;SDS011;55400;51.824;-0.196;2024-02-26T16:05:52;1.10;;;0.50;;
68144;SDS011;55400;51.824;-0.196;2024-02-26T16:09:52;3.80;;;0.90;;
68144;SDS011;55400;51.824;-0.196;2024-02-26T16:13:58;3.60;;;0.90;;
68144;SDS011;55400;51.824;-0.196;2024-02-26T16:17:52;5.30;;;1.20;;
68144;SDS011;55400;51.824;-0.196;2024-02-26T16:21:52;5.40;;;1.30;;
68144;SDS011;55400;51.824;-0.196;2024-02-26T16:25:52;3.20;;;1.00;;
68144;SDS011;55400;51.824;-0.196;2024-02-26T16:29:52;5.30;;;1.30;;
68144;SDS011;55400;51.824;-0.196;2024-02-26T16:33:52;1.60;;;0.80;;
68144;SDS011;55400;51.824;-0.196;2024-02-26T16:37:51;5.20;;;1.00;;
68144;SDS011;55400;51.824;-0.196;2024-02-26T16:41:52;3.30;;;0.80;;
68144;SDS011;55400;51.824;-0.196;2024-02-26T16:45:52;3.30;;;0.90;;
68144;SDS011;55400;51.824;-0.196;2024-02-26T16:49:52;2.70;;;0.90;;
68144;SDS011;55400;51.824;-0.196;2024-02-26T16:53:52;1.80;;;0.70;;
68144;SDS011;55400;51.824;-0.196;2024-02-26T16:57:53;3.20;;;1.10;;
68144;SDS011;55400;51.824;-0.196;2024-02-26T17:01:52;1.90;;;0.70;;
68144;SDS011;55400;51.824;-0.196;2024-02-26T17:05:52;4.10;;;0.90;;
68144;SDS011;55400;51.824;-0.196;2024-02-26T17:09:52;2.80;;;0.90;;
68144;SDS011;55400;51.824;-0.196;2024-02-26T17:13:52;2.20;;;1.00;;
68144;SDS011;55400;51.824;-0.196;2024-02-26T17:17:52;2.90;;;0.80;;
68144;SDS011;55400;51.824;-0.196;2024-02-26T17:21:52;1.90;;;0.80;;
68144;SDS011;55400;51.824;-0.196;2024-02-26T17:25:52;5.00;;;1.10;;
68144;SDS011;55400;51.824;-0.196;2024-02-26T17:29:52;2.80;;;1.20;;
68144;SDS011;55400;51.824;-0.196;2024-02-26T17:33:52;3.40;;;1.20;;
68144;SDS011;55400;51.824;-0.196;2024-02-26T17:37:52;3.50;;;1.30;;
68144;SDS011;55400;51.824;-0.196;2024-02-26T17:41:52;3.90;;;1.10;;
68144;SDS011;55400;51.824;-0.196;2024-02-26T17:45:52;7.00;;;1.20;;
68144;SDS011;55400;51.824;-0.196;2024-02-26T17:49:52;4.10;;;1.10;;
68144;SDS011;55400;51.824;-0.196;2024-02-26T17:53:52;9.90;;;2.70;;
68144;SDS011;55400;51.824;-0.196;2024-02-26T17:57:52;3.40;;;1.10;;
68144;SDS011;55400;51.824;-0.196;2024-02-26T18:01:52;5.00;;;1.40;;
68144;SDS011;55400;51.824;-0.196;2024-02-26T18:05:52;2.30;;;1.10;;
68144;SDS011;55400;51.824;-0.196;2024-02-26T18:09:52;2.70;;;1.20;;
68144;SDS011;55400;51.824;-0.196;2024-02-26T18:13:52;5.70;;;1.30;;
68144;SDS011;55400;51.824;-0.196;2024-02-26T18:17:52;1.70;;;0.90;;
68144;SDS011;55400;51.824;-0.196;2024-02-26T18:21:52;4.00;;;1.20;;
68144;SDS011;55400;51.824;-0.196;2024-02-26T18:25:52;5.00;;;0.90;;
68144;SDS011;55400;51.824;-0.196;2024-02-26T18:29:52;3.10;;;1.40;;
68144;SDS011;55400;51.824;-0.196;2024-02-26T18:33:52;6.10;;;1.20;;
68144;SDS011;55400;51.824;-0.196;2024-02-26T18:37:52;2.30;;;1.00;;
68144;SDS011;55400;51.824;-0.196;2024-02-26T18:41:52;3.70;;;1.00;;
68144;SDS011;55400;51.824;-0.196;2024-02-26T18:47:44;3.10;;;1.10;;
68144;SDS011;55400;51.824;-0.196;2024-02-26T18:48:50;3.10;;;1.10;;
68144;SDS011;55400;51.824;-0.196;2024-02-26T18:52:50;2.90;;;1.10;;
68144;SDS011;55400;51.824;-0.196;2024-02-26T18:57:25;4.00;;;1.50;;
68144;SDS011;55400;51.824;-0.196;2024-02-26T19:00:50;1.70;;;0.90;;
68144;SDS011;55400;51.824;-0.196;2024-02-26T19:04:50;7.90;;;1.10;;
68144;SDS011;55400;51.824;-0.196;2024-02-26T19:08:50;4.10;;;1.10;;
68144;SDS011;55400;51.824;-0.196;2024-02-26T19:12:50;4.90;;;1.20;;
68144;SDS011;55400;51.824;-0.196;2024-02-26T19:16:50;8.20;;;1.50;;
68144;SDS011;55400;51.824;-0.196;2024-02-26T19:20:50;4.40;;;1.40;;
68144;SDS011;55400;51.824;-0.196;2024-02-26T19:28:50;5.70;;;1.40;;
68144;SDS011;55400;51.824;-0.196;2024-02-26T19:32:50;4.70;;;1.00;;
68144;SDS011;55400;51.824;-0.196;2024-02-26T19:36:50;4.20;;;1.20;;
68144;SDS011;55400;51.824;-0.196;2024-02-26T19:40:50;5.60;;;1.50;;
68144;SDS011;55400;51.824;-0.196;2024-02-26T19:44:51;3.40;;;1.10;;
68144;SDS011;55400;51.824;-0.196;2024-02-26T19:52:50;3.20;;;1.20;;
68144;SDS011;55400;51.824;-0.196;2024-02-26T19:56:50;3.60;;;1.20;;
68144;SDS011;55400;51.824;-0.196;2024-02-26T20:00:50;3.90;;;1.30;;
68144;SDS011;55400;51.824;-0.196;2024-02-26T20:04:50;5.20;;;1.20;;
68144;SDS011;55400;51.824;-0.196;2024-02-26T20:08:50;5.20;;;1.20;;
68144;SDS011;55400;51.824;-0.196;2024-02-26T20:12:50;5.60;;;1.30;;
68144;SDS011;55400;51.824;-0.196;2024-02-26T20:20:51;3.80;;;1.20;;
68144;SDS011;55400;51.824;-0.196;2024-02-26T20:24:51;3.60;;;1.30;;
68144;SDS011;55400;51.824;-0.196;2024-02-26T20:28:50;4.60;;;1.40;;
68144;SDS011;55400;51.824;-0.196;2024-02-26T20:32:50;6.10;;;1.20;;
68144;SDS011;55400;51.824;-0.196;2024-02-26T20:36:51;5.60;;;1.60;;
68144;SDS011;55400;51.824;-0.196;2024-02-26T20:40:50;8.60;;;2.20;;
68144;SDS011;55400;51.824;-0.196;2024-02-26T20:44:51;4.00;;;1.40;;
68144;SDS011;55400;51.824;-0.196;2024-02-26T20:48:50;2.90;;;1.40;;
68144;SDS011;55400;51.824;-0.196;2024-02-26T20:52:50;4.10;;;1.60;;
68144;SDS011;55400;51.824;-0.196;2024-02-26T20:56:50;3.60;;;1.10;;
68144;SDS011;55400;51.824;-0.196;2024-02-26T21:00:50;3.10;;;1.30;;
68144;SDS011;55400;51.824;-0.196;2024-02-26T21:04:50;6.10;;;1.40;;
68144;SDS011;55400;51.824;-0.196;2024-02-26T21:08:51;3.60;;;1.30;;
68144;SDS011;55400;51.824;-0.196;2024-02-26T21:12:50;3.60;;;1.10;;
68144;SDS011;55400;51.824;-0.196;2024-02-26T21:20:51;4.00;;;0.90;;
68144;SDS011;55400;51.824;-0.196;2024-02-26T21:24:50;4.80;;;1.50;;
68144;SDS011;55400;51.824;-0.196;2024-02-26T21:28:50;6.20;;;1.60;;
68144;SDS011;55400;51.824;-0.196;2024-02-26T21:40:51;5.10;;;1.20;;
68144;SDS011;55400;51.824;-0.196;2024-02-26T21:44:50;3.70;;;1.10;;
68144;SDS011;55400;51.824;-0.196;2024-02-26T21:48:51;3.10;;;1.50;;
68144;SDS011;55400;51.824;-0.196;2024-02-26T21:52:51;7.10;;;1.60;;
68144;SDS011;55400;51.824;-0.196;2024-02-26T22:00:51;5.60;;;1.40;;
68144;SDS011;55400;51.824;-0.196;2024-02-26T22:04:52;3.80;;;1.60;;
68144;SDS011;55400;51.824;-0.196;2024-02-26T22:08:51;5.60;;;1.50;;
68144;SDS011;55400;51.824;-0.196;2024-02-26T22:12:51;6.20;;;1.90;;
68144;SDS011;55400;51.824;-0.196;2024-02-26T22:16:51;3.20;;;1.60;;
68144;SDS011;55400;51.824;-0.196;2024-02-26T22:28:51;3.90;;;1.90;;
68144;SDS011;55400;51.824;-0.196;2024-02-26T22:32:51;6.50;;;1.90;;
68144;SDS011;55400;51.824;-0.196;2024-02-26T22:36:51;4.00;;;1.80;;
68144;SDS011;55400;51.824;-0.196;2024-02-26T22:40:51;4.80;;;1.80;;
68144;SDS011;55400;51.824;-0.196;2024-02-26T22:44:51;3.60;;;1.80;;
68144;SDS011;55400;51.824;-0.196;2024-02-26T22:52:51;6.80;;;2.30;;
68144;SDS011;55400;51.824;-0.196;2024-02-26T22:56:51;5.00;;;1.90;;
68144;SDS011;55400;51.824;-0.196;2024-02-26T23:00:51;3.30;;;1.50;;
68144;SDS011;55400;51.824;-0.196;2024-02-26T23:04:51;5.20;;;1.80;;
68144;SDS011;55400;51.824;-0.196;2024-02-26T23:08:51;5.50;;;2.10;;
68144;SDS011;55400;51.824;-0.196;2024-02-26T23:12:51;4.20;;;1.70;;
68144;SDS011;55400;51.824;-0.196;2024-02-26T23:16:51;6.00;;;1.90;;
68144;SDS011;55400;51.824;-0.196;2024-02-26T23:20:51;6.40;;;1.90;;
68144;SDS011;55400;51.824;-0.196;2024-02-26T23:24:51;4.80;;;1.90;;
68144;SDS011;55400;51.824;-0.196;2024-02-26T23:28:51;4.60;;;1.60;;
68144;SDS011;55400;51.824;-0.196;2024-02-26T23:32:51;2.80;;;1.40;;
68144;SDS011;55400;51.824;-0.196;2024-02-26T23:34:54;2.80;;;1.40;;
68144;SDS011;55400;51.824;-0.196;2024-02-26T23:40:51;5.80;;;1.80;;
68144;SDS011;55400;51.824;-0.196;2024-02-26T23:44:51;4.50;;;1.50;;
68144;SDS011;55400;51.824;-0.196;2024-02-26T23:52:51;5.50;;;1.80;;
68144;SDS011;55400;51.824;-0.196;2024-02-26T23:56:51;7.80;;;1.90;;
